Time;durP1;ratioP1;P1;durP2;ratioP2;P2;SDS_P1;SDS_P2;PMS_P1;PMS_P2;Temp;Humidity;BMP_temperature;BMP_pressure;BME280_temperature;BME280_humidity;BME280_pressure;Samples;Min_cycle;Max_cycle;Signal;HPM_P1;HPM_P2
2024/01/28 00:01:02;;;;;;;22.67;14.35;;;0.80;99.90;;;;;;7378953;19;20112;-68
2024/01/28 00:03:29;;;;;;;25.60;14.23;;;0.90;99.90;;;;;;7372693;19;20042;-66
2024/01/28 00:05:55;;;;;;;26.95;13.85;;;0.80;99.90;;;;;;7376060;19;20019;-68
2024/01/28 00:08:25;;;;;;;26.58;15.35;;;0.80;99.90;;;;;;7376032;19;20015;-68
2024/01/28 00:10:53;;;;;;;24.20;14.55;;;0.80;99.90;;;;;;7378683;19;20017;-66
2024/01/28 00:13:23;;;;;;;22.70;14.70;;;0.90;99.90;;;;;;7372014;19;20391;-67
2024/01/28 00:15:54;;;;;;;25.23;15.07;;;0.90;99.90;;;;;;7378729;19;20006;-68
2024/01/28 00:18:21;;;;;;;25.23;13.73;;;1.00;99.90;;;;;;7378789;19;20491;-68
2024/01/28 00:20:47;;;;;;;22.80;14.02;;;1.00;99.90;;;;;;7380113;19;20039;-67
2024/01/28 00:23:14;;;;;;;26.67;15.13;;;1.10;99.90;;;;;;7371328;19;20480;-67
2024/01/28 00:25:40;;;;;;;27.70;13.60;;;1.10;99.90;;;;;;7376850;19;20030;-68
2024/01/28 00:28:06;;;;;;;20.80;14.32;;;1.20;99.90;;;;;;7379304;19;20485;-66
2024/01/28 00:30:33;;;;;;;25.42;14.73;;;1.20;99.90;;;;;;7371293;19;20019;-66
2024/01/28 00:32:59;;;;;;;25.75;14.02;;;1.20;99.90;;;;;;7370692;19;20018;-67
2024/01/28 00:35:25;;;;;;;24.15;14.30;;;1.20;99.90;;;;;;7370152;19;20097;-66
2024/01/28 00:37:54;;;;;;;24.55;13.85;;;1.40;99.90;;;;;;7375341;19;20676;-67
2024/01/28 00:40:21;;;;;;;28.88;13.98;;;1.40;99.90;;;;;;7374536;19;20029;-67
2024/01/28 00:42:49;;;;;;;23.08;13.25;;;1.40;99.90;;;;;;7379572;19;20062;-67
2024/01/28 00:45:16;;;;;;;28.70;13.63;;;1.40;99.90;;;;;;7372435;19;20011;-66
2024/01/28 00:47:44;;;;;;;23.77;13.25;;;1.40;99.90;;;;;;7374478;19;20546;-66
2024/01/28 00:50:10;;;;;;;20.40;12.50;;;1.40;99.90;;;;;;7372249;19;20019;-66
2024/01/28 00:52:36;;;;;;;27.45;13.45;;;1.40;99.90;;;;;;7373346;19;20143;-66
2024/01/28 00:55:03;;;;;;;25.50;13.30;;;1.40;99.90;;;;;;7378336;19;20017;-67
2024/01/28 00:57:29;;;;;;;23.30;13.82;;;1.40;99.90;;;;;;7377210;19;20022;-67
2024/01/28 00:59:55;;;;;;;22.00;12.65;;;1.40;99.90;;;;;;7372502;19;20035;-66
2024/01/28 01:02:21;;;;;;;29.13;13.48;;;1.40;99.90;;;;;;7370848;19;20030;-66
2024/01/28 01:04:51;;;;;;;25.35;14.00;;;1.40;99.90;;;;;;7377457;19;20035;-66
2024/01/28 01:07:18;;;;;;;23.13;13.13;;;1.40;99.90;;;;;;7374500;19;20109;-66
2024/01/28 01:09:45;;;;;;;20.33;12.00;;;1.30;99.90;;;;;;7373386;19;20456;-66
2024/01/28 01:12:12;;;;;;;24.10;12.75;;;1.20;99.90;;;;;;7370381;19;20168;-66
2024/01/28 01:14:38;;;;;;;28.92;13.25;;;1.20;99.90;;;;;;7372368;19;20633;-66
2024/01/28 01:17:05;;;;;;;24.63;14.23;;;1.20;99.90;;;;;;7370756;19;20393;-67
2024/01/28 01:19:31;;;;;;;24.48;13.00;;;1.10;99.90;;;;;;7373521;19;20024;-68
2024/01/28 01:21:57;;;;;;;24.70;12.85;;;1.10;99.90;;;;;;7374582;19;20077;-66
2024/01/28 01:24:24;;;;;;;29.20;13.88;;;1.10;99.90;;;;;;7367806;19;20021;-66
2024/01/28 01:26:51;;;;;;;19.85;12.10;;;1.10;99.90;;;;;;7371741;19;20108;-67
2024/01/28 01:29:17;;;;;;;19.73;13.57;;;1.10;99.90;;;;;;7368774;19;20021;-67
2024/01/28 01:31:43;;;;;;;25.10;13.25;;;1.00;99.90;;;;;;7381071;19;20015;-66
2024/01/28 01:34:10;;;;;;;23.63;13.02;;;1.00;99.90;;;;;;7371038;19;20022;-66
2024/01/28 01:36:36;;;;;;;23.98;13.40;;;1.00;99.90;;;;;;7370020;19;20014;-67
2024/01/28 01:39:02;;;;;;;20.92;13.27;;;1.00;99.90;;;;;;7368423;19;20472;-66
2024/01/28 01:41:29;;;;;;;26.48;13.63;;;1.00;99.90;;;;;;7374054;19;20065;-66
2024/01/28 01:43:55;;;;;;;25.95;13.75;;;1.00;99.90;;;;;;7373021;19;20014;-66
2024/01/28 01:46:23;;;;;;;29.63;15.35;;;1.00;99.90;;;;;;7373342;19;20011;-67
2024/01/28 01:48:49;;;;;;;24.50;12.68;;;1.00;99.90;;;;;;7376681;19;20082;-67
2024/01/28 01:51:16;;;;;;;24.13;13.00;;;1.00;99.90;;;;;;7378361;19;20062;-67
2024/01/28 01:53:44;;;;;;;20.27;12.93;;;1.00;99.90;;;;;;7375530;19;20037;-67
2024/01/28 01:56:11;;;;;;;21.88;14.18;;;1.00;99.90;;;;;;7380171;19;20015;-67
2024/01/28 01:58:38;;;;;;;23.73;12.35;;;1.00;99.90;;;;;;7373339;19;20422;-66
2024/01/28 02:01:04;;;;;;;24.05;13.10;;;1.10;99.90;;;;;;7366969;19;20026;-67
2024/01/28 02:03:30;;;;;;;27.50;13.80;;;1.10;99.90;;;;;;7375509;19;20019;-68
2024/01/28 02:05:57;;;;;;;22.98;13.07;;;1.10;99.90;;;;;;7373819;19;20052;-68
2024/01/28 02:08:23;;;;;;;21.13;13.20;;;1.10;99.90;;;;;;7374375;19;20065;-68
2024/01/28 02:10:49;;;;;;;26.55;13.23;;;1.10;99.90;;;;;;7377875;19;20018;-68
2024/01/28 02:13:17;;;;;;;20.88;12.18;;;1.10;99.90;;;;;;7377251;19;20027;-66
2024/01/28 02:15:44;;;;;;;21.83;13.02;;;1.20;99.90;;;;;;7373061;19;20097;-67
2024/01/28 02:18:11;;;;;;;21.13;13.20;;;1.20;99.90;;;;;;7377631;19;20100;-67
2024/01/28 02:20:38;;;;;;;23.75;13.23;;;1.20;99.90;;;;;;7375540;19;20086;-66
2024/01/28 02:23:05;;;;;;;26.48;13.55;;;1.20;99.90;;;;;;7374956;19;20909;-66
2024/01/28 02:25:33;;;;;;;21.30;12.30;;;1.30;99.90;;;;;;7370030;19;20019;-66
2024/01/28 02:28:00;;;;;;;24.50;13.73;;;1.30;99.90;;;;;;7375990;19;20533;-66
2024/01/28 02:30:27;;;;;;;22.80;12.90;;;1.40;99.90;;;;;;7376849;19;20024;-66
2024/01/28 02:32:54;;;;;;;23.00;13.88;;;1.50;99.90;;;;;;7376668;19;20031;-66
2024/01/28 02:35:21;;;;;;;25.67;12.32;;;1.60;99.90;;;;;;7370132;19;20018;-66
2024/01/28 02:37:48;;;;;;;27.35;12.23;;;1.60;99.90;;;;;;7377471;19;20022;-68
2024/01/28 02:40:15;;;;;;;18.85;11.48;;;1.70;99.90;;;;;;7381244;19;20090;-66
2024/01/28 02:42:42;;;;;;;25.73;11.85;;;1.70;99.90;;;;;;7380537;19;20039;-66
2024/01/28 02:45:09;;;;;;;22.95;11.73;;;1.80;99.90;;;;;;7379203;19;20034;-67
2024/01/28 02:47:36;;;;;;;18.13;11.13;;;1.80;99.90;;;;;;7383162;19;20090;-67
2024/01/28 02:50:03;;;;;;;20.40;11.32;;;1.70;99.90;;;;;;7383188;19;20035;-67
2024/01/28 02:52:30;;;;;;;22.73;12.23;;;1.70;99.90;;;;;;7381528;19;21066;-67
2024/01/28 02:54:58;;;;;;;23.17;11.45;;;1.80;99.90;;;;;;7381284;19;20107;-66
2024/01/28 02:57:28;;;;;;;19.55;11.65;;;1.80;99.90;;;;;;7378559;19;20026;-67
2024/01/28 02:59:55;;;;;;;18.77;11.45;;;1.70;99.90;;;;;;7376838;19;20060;-67
2024/01/28 03:02:21;;;;;;;18.38;11.13;;;1.70;99.90;;;;;;7375027;19;20993;-67
2024/01/28 03:04:48;;;;;;;20.30;11.30;;;1.70;99.90;;;;;;7372334;19;20026;-67
2024/01/28 03:07:14;;;;;;;22.58;10.88;;;1.60;99.90;;;;;;7375178;19;20601;-67
2024/01/28 03:09:40;;;;;;;18.40;11.15;;;1.60;99.90;;;;;;7373162;19;20046;-67
2024/01/28 03:12:09;;;;;;;20.65;11.23;;;1.60;99.90;;;;;;7373627;19;20056;-67
2024/01/28 03:14:35;;;;;;;20.55;11.75;;;1.60;99.90;;;;;;7373407;19;20024;-67
2024/01/28 03:17:02;;;;;;;19.45;11.15;;;1.60;99.90;;;;;;7373041;19;20019;-66
2024/01/28 03:19:28;;;;;;;24.70;11.38;;;1.60;99.90;;;;;;7373789;19;20026;-67
2024/01/28 03:21:54;;;;;;;18.85;10.40;;;1.60;99.90;;;;;;7370766;19;21322;-67
2024/01/28 03:24:20;;;;;;;19.05;10.23;;;1.60;99.90;;;;;;7374039;19;20015;-67
2024/01/28 03:26:46;;;;;;;21.17;11.60;;;1.60;99.90;;;;;;7372480;19;20019;-67
2024/01/28 03:29:13;;;;;;;21.08;10.13;;;1.60;99.90;;;;;;7374046;19;20772;-67
2024/01/28 03:31:40;;;;;;;20.08;11.70;;;1.70;99.90;;;;;;7372555;19;20049;-67
2024/01/28 03:34:07;;;;;;;25.63;12.57;;;1.60;99.90;;;;;;7371353;19;20022;-68
2024/01/28 03:36:33;;;;;;;20.30;12.25;;;1.60;99.90;;;;;;7377189;19;20034;-68
2024/01/28 03:38:59;;;;;;;21.33;12.05;;;1.50;99.90;;;;;;7378367;19;20018;-68
2024/01/28 03:41:26;;;;;;;22.05;11.75;;;1.50;99.90;;;;;;7376749;19;20026;-68
2024/01/28 03:43:52;;;;;;;24.17;11.55;;;1.50;99.90;;;;;;7376625;19;20032;-68
2024/01/28 03:46:18;;;;;;;23.30;12.25;;;1.50;99.90;;;;;;7375973;19;20018;-67
2024/01/28 03:48:45;;;;;;;25.95;13.45;;;1.50;99.90;;;;;;7372928;19;20022;-67
2024/01/28 03:51:12;;;;;;;25.00;12.45;;;1.40;99.90;;;;;;7373442;19;20018;-67
2024/01/28 03:53:39;;;;;;;20.60;12.02;;;1.40;99.90;;;;;;7370063;19;20030;-66
2024/01/28 03:56:06;;;;;;;28.27;14.23;;;1.40;99.90;;;;;;7369363;19;20051;-66
2024/01/28 03:58:33;;;;;;;22.42;12.63;;;1.40;99.90;;;;;;7368650;19;20039;-68
2024/01/28 04:01:00;;;;;;;28.35;13.07;;;1.40;99.90;;;;;;7379698;19;20380;-68
2024/01/28 04:03:27;;;;;;;25.65;12.85;;;1.40;99.90;;;;;;7380566;19;20397;-68
2024/01/28 04:05:54;;;;;;;20.30;12.48;;;1.40;99.90;;;;;;7372285;19;20082;-67
2024/01/28 04:08:21;;;;;;;25.95;13.35;;;1.30;99.90;;;;;;7367603;19;20024;-67
2024/01/28 04:10:47;;;;;;;24.15;13.43;;;1.30;99.90;;;;;;7374589;19;20026;-66
2024/01/28 04:13:14;;;;;;;25.23;11.93;;;1.30;99.90;;;;;;7372319;19;20599;-66
2024/01/28 04:15:40;;;;;;;25.30;13.82;;;1.20;99.90;;;;;;7375256;19;21248;-68
2024/01/28 04:18:06;;;;;;;28.00;12.15;;;1.10;99.90;;;;;;7378190;19;20050;-68
2024/01/28 04:20:32;;;;;;;24.55;12.45;;;1.10;99.90;;;;;;7369920;19;20406;-68
2024/01/28 04:22:59;;;;;;;19.98;13.13;;;1.10;99.90;;;;;;7371465;19;20018;-67
2024/01/28 04:25:25;;;;;;;28.35;13.80;;;1.10;99.90;;;;;;7363365;19;20026;-67
2024/01/28 04:27:51;;;;;;;26.63;13.70;;;1.10;99.90;;;;;;7372399;19;20798;-68
2024/01/28 04:30:18;;;;;;;25.67;12.65;;;1.00;99.90;;;;;;7373239;19;20018;-68
2024/01/28 04:32:44;;;;;;;24.08;13.93;;;0.90;99.90;;;;;;7376493;19;20056;-68
2024/01/28 04:35:12;;;;;;;24.05;13.43;;;0.90;99.90;;;;;;7373332;19;20014;-68
2024/01/28 04:37:39;;;;;;;17.73;12.23;;;0.80;99.90;;;;;;7373319;19;20058;-67
2024/01/28 04:40:06;;;;;;;25.10;12.40;;;0.80;99.90;;;;;;7364709;19;20131;-67
2024/01/28 04:42:33;;;;;;;20.55;13.13;;;0.70;99.90;;;;;;7369183;19;20017;-67
2024/01/28 04:44:59;;;;;;;18.05;12.43;;;0.70;99.90;;;;;;7367413;19;20042;-67
2024/01/28 04:47:25;;;;;;;28.50;13.95;;;0.60;99.90;;;;;;7367436;19;20025;-67
2024/01/28 04:49:52;;;;;;;26.10;13.63;;;0.60;99.90;;;;;;7365454;19;20022;-67
2024/01/28 04:52:18;;;;;;;24.98;13.68;;;0.60;99.90;;;;;;7365707;19;20516;-66
2024/01/28 04:54:44;;;;;;;24.35;15.05;;;0.60;99.90;;;;;;7369719;19;20010;-66
2024/01/28 04:57:10;;;;;;;23.98;14.32;;;0.50;99.90;;;;;;7367717;19;20028;-66
2024/01/28 04:59:37;;;;;;;28.77;15.10;;;0.50;99.90;;;;;;7367126;19;20091;-66
2024/01/28 05:02:05;;;;;;;21.17;13.55;;;0.50;99.90;;;;;;7367627;19;20608;-66
2024/01/28 05:04:32;;;;;;;21.85;14.30;;;0.50;99.90;;;;;;7373436;19;20058;-68
2024/01/28 05:06:59;;;;;;;23.02;13.02;;;0.50;99.90;;;;;;7372820;19;20010;-68
2024/01/28 05:09:26;;;;;;;24.52;14.43;;;0.40;99.90;;;;;;7369488;19;20014;-68
2024/01/28 05:11:54;;;;;;;27.70;14.25;;;0.40;99.90;;;;;;7371796;19;20480;-68
2024/01/28 05:14:21;;;;;;;27.17;13.93;;;0.30;99.90;;;;;;7373577;19;20019;-68
2024/01/28 05:16:49;;;;;;;16.88;13.30;;;0.40;99.90;;;;;;7370048;19;20018;-64
2024/01/28 05:19:16;;;;;;;26.67;15.80;;;0.40;99.90;;;;;;7363945;19;20029;-67
2024/01/28 05:21:43;;;;;;;22.88;14.13;;;0.30;99.90;;;;;;7369621;19;20053;-66
2024/01/28 05:24:10;;;;;;;29.65;14.30;;;0.30;99.90;;;;;;7368087;19;20052;-66
2024/01/28 05:26:37;;;;;;;25.15;14.73;;;0.30;99.90;;;;;;7364626;19;20019;-66
2024/01/28 05:29:06;;;;;;;25.45;13.63;;;0.30;99.90;;;;;;7366449;19;20499;-66
2024/01/28 05:31:33;;;;;;;21.40;14.10;;;0.30;99.90;;;;;;7364726;19;20118;-66
2024/01/28 05:34:02;;;;;;;19.40;13.85;;;0.30;99.90;;;;;;7369619;19;20033;-66
2024/01/28 05:36:29;;;;;;;25.00;13.88;;;0.30;99.90;;;;;;7366049;19;20023;-66
2024/01/28 05:38:55;;;;;;;23.92;12.98;;;0.20;99.90;;;;;;7366361;19;20486;-66
2024/01/28 05:41:22;;;;;;;24.00;12.82;;;0.20;99.90;;;;;;7363755;19;20020;-66
2024/01/28 05:43:48;;;;;;;19.25;13.02;;;0.20;99.90;;;;;;7370884;19;20552;-68
2024/01/28 05:46:14;;;;;;;24.50;12.75;;;0.20;99.90;;;;;;7372526;19;20047;-68
2024/01/28 05:48:40;;;;;;;22.23;14.38;;;0.20;99.90;;;;;;7373635;19;20018;-66
2024/01/28 05:51:07;;;;;;;22.83;12.80;;;0.20;99.90;;;;;;7367797;19;20539;-66
2024/01/28 05:53:33;;;;;;;22.08;11.68;;;0.20;99.90;;;;;;7376745;19;20019;-68
2024/01/28 05:55:59;;;;;;;24.75;11.60;;;0.30;99.90;;;;;;7383796;19;20045;-69
2024/01/28 05:58:25;;;;;;;21.52;13.10;;;0.20;99.90;;;;;;7376935;19;20022;-69
2024/01/28 06:00:51;;;;;;;19.25;11.63;;;0.20;99.90;;;;;;7379752;19;20031;-69
2024/01/28 06:03:18;;;;;;;17.00;12.23;;;0.30;99.90;;;;;;7377925;19;20031;-69
2024/01/28 06:05:44;;;;;;;20.05;12.38;;;0.30;99.90;;;;;;7382927;19;20034;-69
2024/01/28 06:08:10;;;;;;;22.25;12.40;;;0.30;99.90;;;;;;7376452;19;20026;-69
2024/01/28 06:10:36;;;;;;;23.30;12.90;;;0.40;99.90;;;;;;7375052;19;20111;-69
2024/01/28 06:13:03;;;;;;;19.42;12.30;;;0.50;99.90;;;;;;7380471;19;20024;-69
2024/01/28 06:15:29;;;;;;;23.08;12.45;;;0.50;99.90;;;;;;7377222;19;20022;-69
2024/01/28 06:17:56;;;;;;;18.45;12.77;;;0.40;99.90;;;;;;7381414;19;20023;-69
2024/01/28 06:20:22;;;;;;;18.42;12.80;;;0.40;99.90;;;;;;7376378;19;20026;-69
2024/01/28 06:22:49;;;;;;;20.75;12.05;;;0.40;99.90;;;;;;7382761;19;20651;-67
2024/01/28 06:25:16;;;;;;;19.90;11.82;;;0.40;99.90;;;;;;7379943;19;20022;-69
2024/01/28 06:27:43;;;;;;;18.63;11.90;;;0.40;99.90;;;;;;7374867;19;20433;-67
2024/01/28 06:30:11;;;;;;;22.75;12.13;;;0.20;99.90;;;;;;7368680;19;20177;-67
2024/01/28 06:32:38;;;;;;;22.67;12.55;;;0.20;99.90;;;;;;7374489;19;20823;-68
2024/01/28 06:35:08;;;;;;;18.33;11.77;;;0.20;99.90;;;;;;7374350;19;20144;-66
2024/01/28 06:37:36;;;;;;;17.38;12.10;;;0.10;99.90;;;;;;7372199;19;20073;-66
2024/01/28 06:40:03;;;;;;;19.42;12.15;;;0.10;99.90;;;;;;7370652;19;20015;-66
2024/01/28 06:42:33;;;;;;;22.52;12.60;;;0.10;99.90;;;;;;7363437;19;20018;-66
2024/01/28 06:45:00;;;;;;;19.58;13.60;;;0.00;99.90;;;;;;7364888;19;20022;-66
2024/01/28 06:47:27;;;;;;;28.13;13.82;;;0.00;99.90;;;;;;7369469;19;20078;-66
2024/01/28 06:49:54;;;;;;;24.60;13.70;;;-0.10;99.90;;;;;;7376013;19;20096;-65
2024/01/28 06:52:23;;;;;;;18.45;12.70;;;0.10;99.90;;;;;;7371560;19;20021;-69
2024/01/28 06:54:51;;;;;;;19.85;13.48;;;0.00;99.90;;;;;;7380760;19;20018;-67
2024/01/28 06:57:19;;;;;;;17.77;11.57;;;0.00;99.90;;;;;;7381397;19;20096;-67
2024/01/28 06:59:46;;;;;;;19.83;12.40;;;-0.10;99.90;;;;;;7380698;19;20022;-67
2024/01/28 07:02:13;;;;;;;16.70;12.90;;;-0.10;99.90;;;;;;7373624;19;20573;-66
2024/01/28 07:04:40;;;;;;;26.42;12.93;;;-0.10;99.90;;;;;;7373616;19;20017;-66
2024/01/28 07:07:07;;;;;;;21.60;13.52;;;-0.10;99.90;;;;;;7370521;19;20570;-66
2024/01/28 07:09:34;;;;;;;22.50;13.50;;;-0.10;99.90;;;;;;7372109;19;20018;-66
2024/01/28 07:12:02;;;;;;;22.40;13.18;;;-0.10;99.90;;;;;;7373066;19;20108;-66
2024/01/28 07:14:29;;;;;;;22.58;14.23;;;-0.10;99.90;;;;;;7373375;19;20018;-66
2024/01/28 07:16:56;;;;;;;20.30;13.85;;;-0.10;99.90;;;;;;7376099;19;20672;-66
2024/01/28 07:19:23;;;;;;;19.85;12.15;;;-0.10;99.90;;;;;;7372128;19;20085;-66
2024/01/28 07:21:51;;;;;;;20.67;13.00;;;-0.10;99.90;;;;;;7373290;19;20843;-66
2024/01/28 07:24:19;;;;;;;26.70;14.35;;;0.00;99.90;;;;;;7369015;19;20019;-67
2024/01/28 07:26:47;;;;;;;21.75;14.15;;;-0.10;99.90;;;;;;7378908;19;20019;-68
2024/01/28 07:29:14;;;;;;;19.95;13.80;;;0.00;99.90;;;;;;7381850;19;20403;-67
2024/01/28 07:31:41;;;;;;;22.40;13.43;;;-0.10;99.90;;;;;;7376346;19;20089;-67
2024/01/28 07:34:08;;;;;;;22.20;13.90;;;0.00;99.90;;;;;;7381352;19;20398;-68
2024/01/28 07:36:35;;;;;;;20.25;13.73;;;0.00;99.90;;;;;;7374295;19;20082;-66
2024/01/28 07:39:04;;;;;;;23.67;14.10;;;0.00;99.90;;;;;;7374663;19;20073;-66
2024/01/28 07:41:34;;;;;;;25.70;14.48;;;0.00;99.90;;;;;;7368211;19;20082;-67
2024/01/28 07:44:02;;;;;;;25.13;13.68;;;0.00;99.90;;;;;;7369107;19;20014;-65
2024/01/28 07:46:28;;;;;;;16.70;12.38;;;0.00;99.90;;;;;;7372483;19;20018;-67
2024/01/28 07:48:54;;;;;;;24.00;13.95;;;0.00;99.90;;;;;;7372746;19;20032;-66
2024/01/28 07:51:21;;;;;;;21.73;13.80;;;0.00;99.90;;;;;;7373588;19;20858;-66
2024/01/28 07:53:47;;;;;;;21.17;12.63;;;0.10;99.90;;;;;;7370753;19;20093;-66
2024/01/28 07:56:16;;;;;;;21.15;13.15;;;0.20;99.90;;;;;;7371853;19;20606;-66
2024/01/28 07:58:42;;;;;;;21.05;12.75;;;0.20;99.90;;;;;;7375600;19;20023;-67
2024/01/28 08:01:08;;;;;;;15.35;12.27;;;0.30;99.90;;;;;;7376011;19;20060;-67
2024/01/28 08:03:35;;;;;;;22.23;12.73;;;0.30;99.90;;;;;;7380641;19;20402;-67
2024/01/28 08:06:01;;;;;;;21.67;14.25;;;0.30;99.90;;;;;;7377863;19;20092;-67
2024/01/28 08:08:27;;;;;;;19.38;12.88;;;0.40;99.90;;;;;;7379947;19;20722;-67
2024/01/28 08:10:54;;;;;;;23.85;13.18;;;0.40;99.90;;;;;;7378263;19;20039;-67
2024/01/28 08:13:21;;;;;;;24.20;13.57;;;0.50;99.90;;;;;;7382142;19;20424;-67
2024/01/28 08:15:48;;;;;;;21.85;13.05;;;0.80;99.90;;;;;;7380431;19;20688;-67
2024/01/28 08:18:14;;;;;;;22.23;13.63;;;0.80;99.90;;;;;;7374467;19;20023;-65
2024/01/28 08:20:41;;;;;;;22.73;13.25;;;0.90;99.90;;;;;;7367109;19;20050;-66
2024/01/28 08:23:07;;;;;;;21.13;11.57;;;1.10;99.90;;;;;;7370205;19;20038;-65
2024/01/28 08:25:33;;;;;;;20.80;12.20;;;1.40;99.90;;;;;;7367967;19;20018;-65
2024/01/28 08:27:59;;;;;;;17.00;10.70;;;1.70;99.90;;;;;;7370170;19;20986;-65
2024/01/28 08:30:26;;;;;;;19.95;11.20;;;1.80;99.90;;;;;;7369968;19;20102;-68
2024/01/28 08:32:52;;;;;;;15.57;9.88;;;1.90;99.90;;;;;;7372072;19;20122;-65
2024/01/28 08:35:18;;;;;;;18.00;10.52;;;1.90;99.90;;;;;;7381659;19;20018;-70
2024/01/28 08:37:45;;;;;;;14.43;10.40;;;2.00;99.90;;;;;;7384752;19;20018;-68
2024/01/28 08:40:15;;;;;;;17.50;9.50;;;2.00;99.90;;;;;;7384640;19;20066;-68
2024/01/28 08:42:42;;;;;;;14.75;10.40;;;2.10;99.90;;;;;;7386259;19;20078;-69
2024/01/28 08:45:09;;;;;;;20.83;10.10;;;2.10;99.90;;;;;;7385091;19;20027;-69
2024/01/28 08:47:36;;;;;;;17.20;9.50;;;2.30;99.90;;;;;;7386608;19;21096;-69
2024/01/28 08:50:04;;;;;;;20.08;9.98;;;2.50;99.90;;;;;;7386808;19;20014;-68
2024/01/28 08:52:31;;;;;;;14.02;9.30;;;3.20;99.90;;;;;;7386911;19;20018;-68
2024/01/28 08:54:58;;;;;;;14.35;8.20;;;4.00;99.90;;;;;;7386796;19;20018;-69
2024/01/28 08:57:25;;;;;;;13.27;7.78;;;4.80;99.90;;;;;;7377941;19;20882;-67
2024/01/28 08:59:52;;;;;;;12.00;7.57;;;5.30;99.90;;;;;;7387006;19;20419;-68
2024/01/28 09:02:19;;;;;;;17.27;8.35;;;5.00;99.90;;;;;;7390116;19;20060;-69
2024/01/28 09:04:46;;;;;;;14.82;8.13;;;4.80;99.90;;;;;;7389749;19;20022;-68
2024/01/28 09:07:22;;;;;;;14.50;8.52;;;4.80;99.90;;;;;;7386462;19;20026;-68
2024/01/28 09:09:49;;;;;;;11.55;7.07;;;4.90;99.90;;;;;;7388101;19;20026;-69
2024/01/28 09:12:16;;;;;;;17.77;8.00;;;5.00;99.90;;;;;;7387166;19;20022;-68
2024/01/28 09:14:44;;;;;;;13.18;7.30;;;5.50;99.90;;;;;;7386235;19;20133;-69
2024/01/28 09:17:10;;;;;;;12.70;7.13;;;5.40;99.90;;;;;;7387187;19;20019;-68
2024/01/28 09:19:37;;;;;;;10.27;6.32;;;5.50;99.90;;;;;;7382773;19;20018;-67
2024/01/28 09:22:05;;;;;;;14.32;8.43;;;5.30;99.90;;;;;;7382816;19;20353;-67
2024/01/28 09:24:32;;;;;;;12.25;6.85;;;5.40;99.90;;;;;;7368068;19;20622;-66
2024/01/28 09:26:58;;;;;;;13.18;6.55;;;5.80;99.90;;;;;;7375094;19;20019;-67
2024/01/28 09:29:27;;;;;;;11.40;6.97;;;6.30;99.90;;;;;;7384532;19;20023;-68
2024/01/28 09:31:56;;;;;;;9.60;6.32;;;6.70;99.90;;;;;;7384697;19;20097;-68
2024/01/28 09:34:25;;;;;;;10.25;5.68;;;7.10;99.90;;;;;;7383530;19;20698;-68
2024/01/28 09:36:51;;;;;;;11.57;6.50;;;7.20;99.90;;;;;;7374119;19;20042;-66
2024/01/28 09:39:18;;;;;;;11.02;6.47;;;7.60;99.90;;;;;;7364258;19;20018;-66
2024/01/28 09:41:54;;;;;;;12.82;6.07;;;7.80;99.90;;;;;;7361025;19;20026;-66
2024/01/28 09:44:21;;;;;;;12.35;6.70;;;8.30;99.90;;;;;;7365949;19;20032;-66
2024/01/28 09:46:48;;;;;;;14.93;6.00;;;8.60;99.90;;;;;;7367577;19;20018;-65
2024/01/28 09:49:16;;;;;;;9.70;5.90;;;8.50;99.90;;;;;;7376989;19;20015;-67
2024/01/28 09:51:44;;;;;;;11.57;6.38;;;7.90;99.90;;;;;;7383319;19;20018;-68
2024/01/28 09:54:12;;;;;;;11.65;5.80;;;7.80;99.90;;;;;;7381156;19;20010;-67
2024/01/28 09:56:41;;;;;;;13.32;6.32;;;8.20;99.90;;;;;;7365301;19;20011;-66
2024/01/28 09:59:09;;;;;;;8.90;5.35;;;8.90;99.90;;;;;;7375196;19;20563;-68
2024/01/28 10:01:35;;;;;;;9.02;5.60;;;9.50;99.90;;;;;;7385702;19;20018;-68
2024/01/28 10:04:02;;;;;;;10.57;6.25;;;9.60;99.90;;;;;;7385504;19;20035;-67
2024/01/28 10:06:28;;;;;;;12.60;5.15;;;9.80;99.90;;;;;;7383287;19;20010;-68
2024/01/28 10:08:54;;;;;;;10.18;5.40;;;10.00;99.90;;;;;;7373780;19;20014;-68
2024/01/28 10:11:21;;;;;;;8.68;5.18;;;10.80;99.90;;;;;;7387030;19;20094;-68
2024/01/28 10:13:47;;;;;;;9.98;5.82;;;11.10;99.90;;;;;;7384127;19;20010;-68
2024/01/28 10:16:14;;;;;;;8.60;5.40;;;11.30;99.90;;;;;;7386128;19;20039;-68
2024/01/28 10:18:41;;;;;;;8.43;4.72;;;11.60;99.90;;;;;;7372150;19;20645;-66
2024/01/28 10:21:07;;;;;;;10.82;5.43;;;11.80;99.90;;;;;;7382150;19;20680;-68
2024/01/28 10:23:37;;;;;;;8.57;5.45;;;11.90;99.90;;;;;;7385129;19;20017;-67
2024/01/28 10:26:06;;;;;;;10.50;5.68;;;11.60;99.40;;;;;;7376677;19;20021;-65
2024/01/28 10:28:32;;;;;;;11.00;5.38;;;11.60;97.60;;;;;;7375159;19;20018;-69
2024/01/28 10:30:58;;;;;;;7.75;5.13;;;11.30;98.20;;;;;;7386463;19;20036;-68
2024/01/28 10:33:29;;;;;;;9.95;5.55;;;11.60;97.50;;;;;;7381163;19;20018;-68
2024/01/28 10:36:03;;;;;;;11.48;6.03;;;11.90;97.30;;;;;;7390936;19;20007;-68
2024/01/28 10:38:32;;;;;;;9.82;5.07;;;12.30;96.40;;;;;;7394527;19;20086;-68
2024/01/28 10:41:00;;;;;;;10.52;4.82;;;12.20;96.70;;;;;;7393258;19;20048;-68
2024/01/28 10:43:37;;;;;;;9.43;5.20;;;12.40;95.80;;;;;;7394027;19;20014;-69
2024/01/28 10:46:06;;;;;;;11.80;6.18;;;13.00;94.20;;;;;;7391944;19;20014;-68
2024/01/28 10:48:37;;;;;;;9.30;4.45;;;13.20;94.90;;;;;;7387930;19;20014;-65
2024/01/28 10:51:04;;;;;;;10.37;5.70;;;13.00;93.50;;;;;;7376791;19;20010;-68
2024/01/28 10:53:30;;;;;;;9.50;4.97;;;12.90;93.00;;;;;;7393080;19;20018;-68
2024/01/28 10:55:59;;;;;;;9.88;5.18;;;13.00;91.00;;;;;;7381618;19;20022;-65
2024/01/28 10:58:26;;;;;;;9.88;4.88;;;13.00;91.00;;;;;;7369689;19;20093;-66
2024/01/28 11:00:52;;;;;;;10.93;5.75;;;13.20;90.70;;;;;;7374201;19;20018;-66
2024/01/28 11:03:19;;;;;;;10.88;5.18;;;13.30;90.50;;;;;;7386836;19;20019;-69
2024/01/28 11:05:46;;;;;;;9.05;4.78;;;13.90;91.00;;;;;;7375702;19;20523;-64
2024/01/28 11:08:12;;;;;;;9.27;4.60;;;14.20;90.10;;;;;;7387696;19;20031;-68
2024/01/28 11:10:40;;;;;;;10.80;5.10;;;14.40;88.90;;;;;;7391208;19;20024;-68
2024/01/28 11:13:10;;;;;;;9.38;4.55;;;15.00;87.30;;;;;;7394386;19;20483;-68
2024/01/28 11:15:37;;;;;;;7.03;4.43;;;15.00;84.70;;;;;;7392517;19;20028;-64
2024/01/28 11:18:07;;;;;;;8.75;4.45;;;15.60;84.80;;;;;;7383745;19;20022;-69
2024/01/28 11:20:34;;;;;;;9.45;4.40;;;15.80;82.70;;;;;;7396269;19;20078;-70
2024/01/28 11:23:15;;;;;;;7.50;4.05;;;16.00;80.50;;;;;;7396495;19;20120;-69
2024/01/28 11:25:46;;;;;;;9.00;3.92;;;15.70;76.60;;;;;;7394235;19;20014;-70
2024/01/28 11:28:15;;;;;;;6.95;4.20;;;15.40;75.70;;;;;;7369401;19;20932;-66
2024/01/28 11:30:46;;;;;;;8.00;4.03;;;15.10;76.00;;;;;;7371716;19;20755;-65
2024/01/28 11:33:14;;;;;;;;;;;15.60;73.70;;;;;;7382749;19;20022;-70
2024/01/28 11:35:45;;;;;;;6.47;3.50;;;15.60;73.30;;;;;;7377547;19;19923;-66
2024/01/28 11:38:19;;;;;;;8.57;3.72;;;15.90;74.90;;;;;;7373922;19;20039;-66
2024/01/28 11:40:57;;;;;;;6.57;3.72;;;16.20;74.00;;;;;;7391113;19;20007;-70
2024/01/28 11:43:25;;;;;;;6.38;3.90;;;16.00;73.00;;;;;;7394512;19;20444;-69
2024/01/28 11:45:52;;;;;;;7.72;4.05;;;15.80;73.50;;;;;;7378291;19;20492;-67
2024/01/28 11:48:19;;;;;;;7.07;4.00;;;15.50;72.50;;;;;;7369927;19;20022;-65
2024/01/28 11:50:45;;;;;;;8.85;3.63;;;15.70;71.90;;;;;;7373628;19;20472;-66
2024/01/28 11:53:12;;;;;;;7.85;3.97;;;15.60;72.30;;;;;;7375270;19;20014;-65
2024/01/28 11:55:38;;;;;;;10.55;3.83;;;15.70;70.80;;;;;;7375352;19;20142;-66
2024/01/28 11:58:04;;;;;;;6.00;3.28;;;15.80;69.80;;;;;;7372650;19;20029;-67
2024/01/28 12:00:31;;;;;;;7.03;3.78;;;15.90;71.10;;;;;;7355643;19;21377;-65
2024/01/28 12:02:58;;;;;;;8.82;3.95;;;16.00;72.30;;;;;;7372041;19;20022;-64
2024/01/28 12:05:25;;;;;;;6.07;3.38;;;16.00;71.10;;;;;;7369705;19;20808;-66
2024/01/28 12:07:53;;;;;;;5.57;3.20;;;16.20;70.00;;;;;;7370887;19;20074;-67
2024/01/28 12:10:19;;;;;;;7.22;3.28;;;16.30;69.10;;;;;;7371662;19;20459;-66
2024/01/28 12:12:45;;;;;;;7.90;3.50;;;16.20;68.60;;;;;;7370060;19;20035;-66
2024/01/28 12:15:13;;;;;;;6.30;3.50;;;16.60;69.00;;;;;;7384908;19;20010;-68
2024/01/28 12:17:44;;;;;;;5.32;2.78;;;16.60;67.30;;;;;;7391843;19;20537;-69
2024/01/28 12:20:22;;;;;;;8.05;3.42;;;17.10;67.70;;;;;;7386012;19;20034;-69
2024/01/28 12:22:48;;;;;;;5.97;3.40;;;17.30;66.50;;;;;;7388809;19;20042;-69
2024/01/28 12:25:21;;;;;;;6.45;3.30;;;17.10;65.80;;;;;;7390524;19;20026;-70
2024/01/28 12:27:51;;;;;;;9.13;3.53;;;16.60;66.60;;;;;;7387969;19;20661;-69
2024/01/28 12:30:19;;;;;;;10.02;3.15;;;16.30;66.30;;;;;;7386245;19;20011;-69
2024/01/28 12:32:48;;;;;;;6.88;3.33;;;16.40;65.40;;;;;;7386505;19;20509;-69
2024/01/28 12:35:17;;;;;;;6.32;2.80;;;16.90;65.80;;;;;;7386520;19;20011;-70
2024/01/28 12:37:44;;;;;;;8.27;3.05;;;17.40;65.90;;;;;;7383389;19;20907;-70
2024/01/28 12:40:11;;;;;;;5.70;2.63;;;17.60;64.70;;;;;;7382593;19;20018;-69